Terminal Aerodrome Forecast
Issued by NWS

Home | Current Version | Previous Version | Text Only | Print | Product List | Glossary On
Versions: 1 2 3 4 5 6 7 8 9 10 11
000
FTUS45 KGJT 140537
TAFVEL
TAF
KVEL 140537Z 1406/1506 04009KT P6SM OVC080
      TEMPO 1406/1409 03014G21KT
     FM140900 01008KT P6SM SCT070 BKN100
     FM141600 VRB05KT P6SM FEW100 FEW250=

USA.gov is the U.S. government's official web portal to all federal, state and local government web resources and services.